createdAt,value
2019-05-26T00:02:18.438Z,15.87
2019-05-26T00:04:48.970Z,15.60
2019-05-26T00:07:30.121Z,17.03
2019-05-26T00:09:52.396Z,16.90
2019-05-26T00:12:22.987Z,15.23
2019-05-26T00:14:53.600Z,15.60
2019-05-26T00:17:24.022Z,16.93
2019-05-26T00:19:54.612Z,16.93
2019-05-26T00:22:25.045Z,16.57
2019-05-26T00:24:55.606Z,16.70
2019-05-26T00:27:26.373Z,16.47
2019-05-26T00:29:56.975Z,16.70
2019-05-26T00:32:27.518Z,16.17
2019-05-26T00:34:58.843Z,17.60
2019-05-26T00:37:45.444Z,17.37
2019-05-26T00:40:01.784Z,16.20
2019-05-26T00:42:32.370Z,16.70
2019-05-26T00:45:03.052Z,16.27
2019-05-26T00:47:33.943Z,16.10
2019-05-26T00:50:05.103Z,17.73
2019-05-26T00:52:35.793Z,18.20
2019-05-26T00:55:07.135Z,17.57
2019-05-26T00:57:37.954Z,17.77
2019-05-26T01:00:10.582Z,18.87
2019-05-26T01:02:41.592Z,19.43
2019-05-26T01:05:13.357Z,19.07
2019-05-26T01:07:43.997Z,19.77
2019-05-26T01:10:15.507Z,20.97
2019-05-26T01:12:46.095Z,20.73
2019-05-26T01:15:17.115Z,19.97
2019-05-26T01:17:47.834Z,20.50
2019-05-26T01:20:18.721Z,19.93
2019-05-26T01:22:53.633Z,18.80
2019-05-26T01:25:22.583Z,18.80
2019-05-26T01:27:53.145Z,19.60
2019-05-26T01:30:45.106Z,18.60
2019-05-26T01:33:15.985Z,17.63
2019-05-26T01:35:46.720Z,18.73
2019-05-26T01:38:23.724Z,17.23
2019-05-26T01:40:49.880Z,23.37
2019-05-26T01:43:21.148Z,19.60
2019-05-26T01:45:52.014Z,17.47
2019-05-26T01:48:25.223Z,18.27
2019-05-26T01:50:56.806Z,18.50
2019-05-26T01:53:27.527Z,18.03
2019-05-26T01:55:58.196Z,18.20
2019-05-26T01:58:28.902Z,17.83
2019-05-26T02:00:59.361Z,19.00
2019-05-26T02:03:29.852Z,16.97
2019-05-26T02:06:00.460Z,15.63
2019-05-26T02:08:39.533Z,16.37
2019-05-26T02:11:03.270Z,16.30
2019-05-26T02:13:34.154Z,16.70
2019-05-26T02:16:05.497Z,16.57
2019-05-26T02:18:35.973Z,16.17
2019-05-26T02:21:06.691Z,16.53
2019-05-26T02:23:37.277Z,17.47
2019-05-26T02:26:07.782Z,19.13
2019-05-26T02:28:38.413Z,19.80
2019-05-26T02:31:09.019Z,18.40
2019-05-26T02:33:39.619Z,18.47
2019-05-26T02:36:10.094Z,18.20
2019-05-26T02:39:00.318Z,18.43
2019-05-26T02:41:13.449Z,19.60
2019-05-26T02:43:44.588Z,19.67
2019-05-26T02:46:15.111Z,19.67
2019-05-26T02:48:46.072Z,17.67
2019-05-26T02:51:16.581Z,20.23
2019-05-26T02:53:47.319Z,20.13
2019-05-26T02:56:17.986Z,18.10
2019-05-26T02:58:48.646Z,19.17
2019-05-26T03:01:19.925Z,20.13
2019-05-26T03:03:50.627Z,19.17
2019-05-26T03:06:23.265Z,19.60
2019-05-26T03:08:56.054Z,18.43
2019-05-26T03:11:28.354Z,17.90
2019-05-26T03:14:00.538Z,18.60
2019-05-26T03:16:34.013Z,17.90
2019-05-26T03:19:05.322Z,17.33
2019-05-26T03:21:36.926Z,17.77
2019-05-26T03:24:07.746Z,18.07
2019-05-26T03:26:38.254Z,18.10
2019-05-26T03:29:09.066Z,16.97
2019-05-26T03:31:39.705Z,18.07
2019-05-26T03:34:10.557Z,23.80
2019-05-26T03:36:41.217Z,20.03
2019-05-26T03:39:12.136Z,18.73
2019-05-26T03:41:42.668Z,18.73
2019-05-26T03:44:13.145Z,18.10
2019-05-26T03:46:44.945Z,18.93
2019-05-26T03:49:15.922Z,17.63
2019-05-26T03:51:46.497Z,17.87
2019-05-26T03:54:17.278Z,15.73
2019-05-26T03:56:47.949Z,16.30
2019-05-26T03:59:18.823Z,16.30
2019-05-26T04:01:49.609Z,15.63
2019-05-26T04:04:20.161Z,15.67
2019-05-26T04:06:50.738Z,15.57
2019-05-26T04:09:21.323Z,15.60
2019-05-26T04:11:51.918Z,16.17
2019-05-26T04:14:22.612Z,15.07
2019-05-26T04:16:56.252Z,14.80
2019-05-26T04:19:25.504Z,15.00
2019-05-26T04:21:56.281Z,14.47
2019-05-26T04:24:27.059Z,15.00
2019-05-26T04:26:57.626Z,14.93
2019-05-26T04:29:28.293Z,15.47
2019-05-26T04:32:02.082Z,15.60
2019-05-26T04:34:31.854Z,16.93
2019-05-26T04:37:02.507Z,17.70
2019-05-26T04:39:33.239Z,16.37
2019-05-26T04:42:03.933Z,17.70
2019-05-26T04:44:34.292Z,17.83
2019-05-26T04:47:05.366Z,17.90
2019-05-26T04:49:37.679Z,18.07
2019-05-26T04:52:08.224Z,18.30
2019-05-26T04:54:38.744Z,18.17
2019-05-26T04:57:10.537Z,16.03
2019-05-26T04:59:41.246Z,17.57
2019-05-26T05:02:11.877Z,18.73
2019-05-26T05:04:42.572Z,18.27
2019-05-26T05:07:13.103Z,17.13
2019-05-26T05:09:43.637Z,18.40
2019-05-26T05:12:14.126Z,17.40
2019-05-26T05:14:44.721Z,17.63
2019-05-26T05:17:15.220Z,17.30
2019-05-26T05:19:45.728Z,16.90
2019-05-26T05:22:16.193Z,16.57
2019-05-26T05:24:46.713Z,16.17
2019-05-26T05:27:17.358Z,14.97
2019-05-26T05:29:48.011Z,15.27
2019-05-26T05:32:18.520Z,14.67
2019-05-26T05:34:49.031Z,14.03
2019-05-26T05:37:20.477Z,12.83
2019-05-26T05:39:51.251Z,12.97
2019-05-26T05:42:21.831Z,12.03
2019-05-26T05:44:53.379Z,11.80
2019-05-26T05:47:24.510Z,13.30
2019-05-26T05:49:55.101Z,11.83
2019-05-26T05:52:25.644Z,12.00
2019-05-26T05:54:56.088Z,12.53
2019-05-26T05:57:26.640Z,11.63
2019-05-26T05:59:57.540Z,12.43
2019-05-26T06:02:28.143Z,12.73
2019-05-26T06:04:58.750Z,11.97
2019-05-26T06:07:29.435Z,12.80
2019-05-26T06:10:00.497Z,13.13
2019-05-26T06:12:31.470Z,14.63
2019-05-26T06:15:02.083Z,16.43
2019-05-26T06:17:32.969Z,14.47
2019-05-26T06:20:03.826Z,13.07
2019-05-26T06:22:34.746Z,12.70
2019-05-26T06:25:07.902Z,13.00
2019-05-26T06:27:38.596Z,13.47
2019-05-26T06:30:09.979Z,13.60
2019-05-26T06:32:40.801Z,12.90
2019-05-26T06:35:11.607Z,12.03
2019-05-26T06:37:42.311Z,12.13
2019-05-26T06:40:13.684Z,13.60
2019-05-26T06:42:44.386Z,12.10
2019-05-26T06:45:15.345Z,14.63
2019-05-26T06:47:46.241Z,13.30
2019-05-26T06:50:19.126Z,13.53
2019-05-26T06:52:49.896Z,13.50
2019-05-26T06:55:21.445Z,13.07
2019-05-26T06:57:52.071Z,13.73
2019-05-26T07:00:22.802Z,14.37
2019-05-26T07:02:54.216Z,11.73
2019-05-26T07:05:24.791Z,23.57
2019-05-26T07:07:55.343Z,14.23
2019-05-26T07:10:26.251Z,13.13
2019-05-26T07:12:56.797Z,13.07
2019-05-26T07:15:27.493Z,11.73
2019-05-26T07:17:58.664Z,12.70
2019-05-26T07:20:29.307Z,12.53
2019-05-26T07:22:59.892Z,13.63
2019-05-26T07:25:31.070Z,12.53
2019-05-26T07:28:01.652Z,13.10
2019-05-26T07:30:32.782Z,12.30
2019-05-26T07:33:03.397Z,12.50
2019-05-26T07:35:34.200Z,11.43
2019-05-26T07:38:05.163Z,9.63
2019-05-26T07:40:35.763Z,10.23
2019-05-26T07:43:06.443Z,9.47
2019-05-26T07:45:37.482Z,9.10
2019-05-26T07:48:08.374Z,8.17
2019-05-26T07:50:39.242Z,8.37
2019-05-26T07:53:10.188Z,9.23
2019-05-26T07:55:40.888Z,8.73
2019-05-26T07:58:11.623Z,9.73
2019-05-26T08:00:42.492Z,8.60
2019-05-26T08:03:13.159Z,9.03
2019-05-26T08:05:44.225Z,9.23
2019-05-26T08:08:14.979Z,8.43
2019-05-26T08:10:45.532Z,8.63
2019-05-26T08:13:16.325Z,12.73
2019-05-26T08:15:46.890Z,9.73
2019-05-26T08:18:17.998Z,8.27
2019-05-26T08:20:48.551Z,8.40
2019-05-26T08:23:20.621Z,7.60
2019-05-26T08:25:51.572Z,8.67
2019-05-26T08:28:22.337Z,9.43
2019-05-26T08:30:53.365Z,8.67
2019-05-26T08:33:24.211Z,8.37
2019-05-26T08:35:54.840Z,8.87
2019-05-26T08:38:25.543Z,8.10
2019-05-26T08:40:56.111Z,6.70
2019-05-26T08:43:27.266Z,7.43
2019-05-26T08:45:58.015Z,7.70
2019-05-26T08:48:29.050Z,8.20
2019-05-26T08:50:59.771Z,10.37
2019-05-26T08:53:30.534Z,8.60
2019-05-26T08:56:01.139Z,7.40
2019-05-26T08:58:31.797Z,6.83
2019-05-26T09:01:02.415Z,7.50
2019-05-26T09:03:33.333Z,6.50
2019-05-26T09:06:03.994Z,7.60
2019-05-26T09:08:34.905Z,7.63
2019-05-26T09:11:05.977Z,7.07
2019-05-26T09:13:36.893Z,7.40
2019-05-26T09:16:07.557Z,6.83
2019-05-26T09:18:38.311Z,7.00
2019-05-26T09:21:09.091Z,7.47
2019-05-26T09:23:40.014Z,7.83
2019-05-26T09:26:10.874Z,8.63
2019-05-26T09:28:41.788Z,7.70
2019-05-26T09:31:12.453Z,7.67
2019-05-26T09:33:43.697Z,9.83
2019-05-26T09:36:14.503Z,7.53
2019-05-26T09:38:45.409Z,7.47
2019-05-26T09:41:16.307Z,7.97
2019-05-26T09:43:47.389Z,9.03
2019-05-26T09:46:17.991Z,8.93
2019-05-26T09:48:48.606Z,8.10
2019-05-26T09:51:20.750Z,7.40
2019-05-26T09:54:01.213Z,7.47
2019-05-26T09:56:24.740Z,8.03
2019-05-26T09:58:55.613Z,8.17
2019-05-26T10:01:26.417Z,11.40
2019-05-26T10:03:57.143Z,9.07
2019-05-26T10:06:27.668Z,7.97
2019-05-26T10:08:58.316Z,7.97
2019-05-26T10:11:28.848Z,6.80
2019-05-26T10:13:59.473Z,6.30
2019-05-26T10:16:29.981Z,6.73
2019-05-26T10:19:01.512Z,6.03
2019-05-26T10:21:32.131Z,5.77
2019-05-26T10:24:03.294Z,5.90
2019-05-26T10:26:33.997Z,5.37
2019-05-26T10:29:04.614Z,5.73
2019-05-26T10:31:35.644Z,5.80
2019-05-26T10:34:06.727Z,8.87
2019-05-26T10:36:37.386Z,5.70
2019-05-26T10:39:09.420Z,5.57
2019-05-26T10:41:39.897Z,4.77
2019-05-26T10:44:10.673Z,5.13
2019-05-26T10:46:41.541Z,5.07
2019-05-26T10:49:12.087Z,4.40
2019-05-26T10:51:42.559Z,4.40
2019-05-26T10:54:13.560Z,5.20
2019-05-26T10:56:44.295Z,4.60
2019-05-26T10:59:16.635Z,5.10
2019-05-26T11:01:47.727Z,5.00
2019-05-26T11:04:18.362Z,4.60
2019-05-26T11:06:49.232Z,5.10
2019-05-26T11:09:20.112Z,4.97
2019-05-26T11:11:51.212Z,5.83
2019-05-26T11:14:21.908Z,5.70
2019-05-26T11:16:54.188Z,5.00
2019-05-26T11:19:24.895Z,5.03
2019-05-26T11:21:55.449Z,4.40
2019-05-26T11:24:27.108Z,4.50
2019-05-26T11:27:08.231Z,4.67
2019-05-26T11:29:30.193Z,3.90
2019-05-26T11:32:00.959Z,4.33
2019-05-26T11:34:31.594Z,4.90
2019-05-26T11:37:02.112Z,4.90
2019-05-26T11:39:32.720Z,5.07
2019-05-26T11:42:12.890Z,5.77
2019-05-26T11:44:35.679Z,6.07
2019-05-26T11:47:06.328Z,4.43
2019-05-26T11:49:36.783Z,4.17
2019-05-26T11:52:07.772Z,4.13
2019-05-26T11:54:38.530Z,4.33
2019-05-26T11:57:08.996Z,3.53
2019-05-26T11:59:39.799Z,3.20
2019-05-26T12:02:10.703Z,4.50
2019-05-26T12:04:41.378Z,3.20
2019-05-26T12:07:12.115Z,3.50
2019-05-26T12:09:43.848Z,3.00
2019-05-26T12:12:14.474Z,3.20
2019-05-26T12:14:45.458Z,2.90
2019-05-26T12:17:15.987Z,3.00
2019-05-26T12:19:46.659Z,2.90
2019-05-26T12:22:17.901Z,2.70
2019-05-26T12:24:48.791Z,2.77
2019-05-26T12:27:19.631Z,2.90
2019-05-26T12:29:50.513Z,3.40
2019-05-26T12:32:20.946Z,2.70
2019-05-26T12:34:51.860Z,3.00
2019-05-26T12:37:23.448Z,2.70
2019-05-26T12:39:54.179Z,2.50
2019-05-26T12:42:24.958Z,3.00
2019-05-26T12:44:55.995Z,2.80
2019-05-26T12:47:27.083Z,2.77
2019-05-26T12:49:57.959Z,3.60
2019-05-26T12:52:28.554Z,2.57
2019-05-26T12:54:59.317Z,2.73
2019-05-26T12:57:29.897Z,2.53
2019-05-26T13:00:00.686Z,2.40
2019-05-26T13:02:31.382Z,2.70
2019-05-26T13:05:01.811Z,2.63
2019-05-26T13:07:32.534Z,2.40
2019-05-26T13:10:22.244Z,2.60
2019-05-26T13:12:53.113Z,2.37
2019-05-26T13:15:25.148Z,2.70
2019-05-26T13:17:56.488Z,2.40
2019-05-26T13:20:28.605Z,2.20
2019-05-26T13:22:59.623Z,2.43
2019-05-26T13:25:30.463Z,2.43
2019-05-26T13:28:01.331Z,3.10
2019-05-26T13:30:32.947Z,2.60
2019-05-26T13:33:04.241Z,2.70
2019-05-26T13:35:35.207Z,2.47
2019-05-26T13:38:06.146Z,2.73
2019-05-26T13:40:36.988Z,3.10
2019-05-26T13:43:07.441Z,2.90
2019-05-26T13:45:38.168Z,2.30
2019-05-26T13:48:08.654Z,2.50
2019-05-26T13:50:39.360Z,2.60
2019-05-26T13:53:10.157Z,2.73
2019-05-26T13:55:40.921Z,3.03
2019-05-26T13:58:11.620Z,3.13
2019-05-26T14:00:42.423Z,2.50
2019-05-26T14:03:14.150Z,2.10
2019-05-26T14:05:44.807Z,2.90
2019-05-26T14:08:15.818Z,3.10
2019-05-26T14:10:46.393Z,2.90
2019-05-26T14:13:17.070Z,2.93
2019-05-26T14:15:48.532Z,2.20
2019-05-26T14:18:19.644Z,2.90
2019-05-26T14:20:50.552Z,2.87
2019-05-26T14:23:21.097Z,3.20
2019-05-26T14:25:51.713Z,2.30
2019-05-26T14:28:22.168Z,2.93
2019-05-26T14:30:52.864Z,3.10
2019-05-26T14:33:23.651Z,3.13
2019-05-26T14:35:54.423Z,3.17
2019-05-26T14:38:24.985Z,2.47
2019-05-26T14:40:55.924Z,2.73
2019-05-26T14:43:26.453Z,2.57
2019-05-26T14:45:57.354Z,2.87
2019-05-26T14:48:28.079Z,3.03
2019-05-26T14:50:58.911Z,2.60
2019-05-26T14:53:29.485Z,3.50
2019-05-26T14:56:00.067Z,3.17
2019-05-26T14:58:30.636Z,3.10
2019-05-26T15:01:01.267Z,3.50
2019-05-26T15:03:32.231Z,2.93
2019-05-26T15:06:05.833Z,2.83
2019-05-26T15:08:34.979Z,3.20
2019-05-26T15:11:05.962Z,3.80
2019-05-26T15:13:36.734Z,3.37
2019-05-26T15:16:10.417Z,2.80
2019-05-26T15:18:40.228Z,3.53
2019-05-26T15:21:10.865Z,3.57
2019-05-26T15:23:41.306Z,3.40
2019-05-26T15:26:11.913Z,3.30
2019-05-26T15:28:42.405Z,3.90
2019-05-26T15:31:12.928Z,3.93
2019-05-26T15:33:43.641Z,3.57
2019-05-26T15:36:16.139Z,3.50
2019-05-26T15:38:46.655Z,3.57
2019-05-26T15:41:17.312Z,3.50
2019-05-26T15:43:48.055Z,3.70
2019-05-26T15:46:25.174Z,3.33
2019-05-26T15:48:50.681Z,4.67
2019-05-26T15:51:21.368Z,4.40
2019-05-26T15:53:53.083Z,4.27
2019-05-26T15:56:24.215Z,3.60
2019-05-26T15:58:54.987Z,4.13
2019-05-26T16:01:25.751Z,4.20
2019-05-26T16:03:56.451Z,3.83
2019-05-26T16:06:27.021Z,4.10
2019-05-26T16:08:57.959Z,3.40
2019-05-26T16:11:28.805Z,3.80
2019-05-26T16:14:00.837Z,3.60
2019-05-26T16:16:40.813Z,3.80
2019-05-26T16:19:04.481Z,3.83
2019-05-26T16:21:35.536Z,3.50
2019-05-26T16:24:06.671Z,3.90
2019-05-26T16:26:37.403Z,3.70
2019-05-26T16:29:08.572Z,3.80
2019-05-26T16:31:39.117Z,3.63
2019-05-26T16:34:10.804Z,4.73
2019-05-26T16:36:41.406Z,4.27
2019-05-26T16:39:12.250Z,4.37
2019-05-26T16:41:42.876Z,4.30
2019-05-26T16:44:13.659Z,4.57
2019-05-26T16:46:55.957Z,4.07
2019-05-26T16:49:16.847Z,5.80
2019-05-26T16:51:47.679Z,4.40
2019-05-26T16:54:18.262Z,3.97
2019-05-26T16:56:49.220Z,4.33
2019-05-26T16:59:20.062Z,4.53
2019-05-26T17:01:50.629Z,3.70
2019-05-26T17:04:21.443Z,3.80
2019-05-26T17:06:52.117Z,3.83
2019-05-26T17:09:22.747Z,4.20
2019-05-26T17:11:53.263Z,4.00
2019-05-26T17:14:24.156Z,3.30
2019-05-26T17:16:54.806Z,4.03
2019-05-26T17:19:25.599Z,4.20
2019-05-26T17:21:56.118Z,3.83
2019-05-26T17:24:26.940Z,5.10
2019-05-26T17:26:57.822Z,5.73
2019-05-26T17:29:28.409Z,6.40
2019-05-26T17:31:59.157Z,5.10
2019-05-26T17:34:29.867Z,9.20
2019-05-26T17:37:00.647Z,4.60
2019-05-26T17:39:31.386Z,4.60
2019-05-26T17:42:01.982Z,4.60
2019-05-26T17:44:32.551Z,4.67
2019-05-26T17:47:03.164Z,4.53
2019-05-26T17:49:33.764Z,4.40
2019-05-26T17:52:04.601Z,4.17
2019-05-26T17:54:35.181Z,4.57
2019-05-26T17:57:05.948Z,4.30
2019-05-26T17:59:38.009Z,4.70
2019-05-26T18:02:08.733Z,4.73
2019-05-26T18:04:39.675Z,5.70
2019-05-26T18:07:11.876Z,5.63
2019-05-26T18:09:44.504Z,5.40
2019-05-26T18:12:14.807Z,4.60
2019-05-26T18:14:45.509Z,5.13
2019-05-26T18:17:16.526Z,4.80
2019-05-26T18:19:47.478Z,5.00
2019-05-26T18:22:18.416Z,8.13
2019-05-26T18:24:55.784Z,6.00
2019-05-26T18:27:21.430Z,6.60
2019-05-26T18:29:52.239Z,7.10
2019-05-26T18:32:22.994Z,6.67
2019-05-26T18:34:53.875Z,5.23
2019-05-26T18:37:24.454Z,5.83
2019-05-26T18:39:55.128Z,4.97
2019-05-26T18:42:26.009Z,5.70
2019-05-26T18:44:56.638Z,5.50
2019-05-26T18:47:27.202Z,6.17
2019-05-26T18:49:58.351Z,7.03
2019-05-26T18:52:28.871Z,7.20
2019-05-26T18:54:59.765Z,6.53
2019-05-26T18:57:30.368Z,6.93
2019-05-26T19:00:01.442Z,6.70
2019-05-26T19:02:33.721Z,6.70
2019-05-26T19:05:04.581Z,6.33
2019-05-26T19:07:36.461Z,7.33
2019-05-26T19:10:09.958Z,7.20
2019-05-26T19:12:42.147Z,8.23
2019-05-26T19:15:13.658Z,6.83
2019-05-26T19:17:45.216Z,7.33
2019-05-26T19:20:17.434Z,7.50
2019-05-26T19:22:48.977Z,7.53
2019-05-26T19:25:20.226Z,7.23
2019-05-26T19:27:51.326Z,6.33
2019-05-26T19:30:22.206Z,7.10
2019-05-26T19:32:53.147Z,7.17
2019-05-26T19:35:24.389Z,6.30
2019-05-26T19:37:55.075Z,7.00
2019-05-26T19:40:25.695Z,7.03
2019-05-26T19:42:56.541Z,6.87
2019-05-26T19:45:27.328Z,9.63
2019-05-26T19:47:58.315Z,6.67
2019-05-26T19:50:29.400Z,7.47
2019-05-26T19:53:00.184Z,6.70
2019-05-26T19:55:31.340Z,6.80
2019-05-26T19:58:03.134Z,7.13
2019-05-26T20:00:33.731Z,7.10
2019-05-26T20:03:04.604Z,6.73
2019-05-26T20:05:35.387Z,6.50
2019-05-26T20:08:06.331Z,7.40
2019-05-26T20:10:36.998Z,7.30
2019-05-26T20:13:08.566Z,6.93
2019-05-26T20:15:39.556Z,7.90
2019-05-26T20:18:10.243Z,19.23
2019-05-26T20:20:41.228Z,27.90
2019-05-26T20:23:11.856Z,9.20
2019-05-26T20:25:43.191Z,8.60
2019-05-26T20:28:14.012Z,7.63
2019-05-26T20:30:45.286Z,7.10
2019-05-26T20:33:15.821Z,6.90
2019-05-26T20:35:46.655Z,7.50
2019-05-26T20:38:17.356Z,8.10
2019-05-26T20:40:48.101Z,7.10
2019-05-26T20:43:19.969Z,8.20
2019-05-26T20:45:50.515Z,7.60
2019-05-26T20:48:21.346Z,8.10
2019-05-26T20:50:52.650Z,6.80
2019-05-26T20:53:24.008Z,7.03
2019-05-26T20:55:54.886Z,7.27
2019-05-26T20:58:25.840Z,6.47
2019-05-26T21:00:56.518Z,6.70
2019-05-26T21:03:27.111Z,6.00
2019-05-26T21:05:58.069Z,6.30
2019-05-26T21:08:28.830Z,6.23
2019-05-26T21:10:59.984Z,6.80
2019-05-26T21:13:31.663Z,7.17
2019-05-26T21:16:02.489Z,6.43
2019-05-26T21:18:33.464Z,6.60
2019-05-26T21:21:04.207Z,6.50
2019-05-26T21:23:36.123Z,5.97
2019-05-26T21:26:06.931Z,6.47
2019-05-26T21:28:37.873Z,6.27
2019-05-26T21:31:08.742Z,6.20
2019-05-26T21:33:39.547Z,64.57
2019-05-26T21:36:10.235Z,34.13
2019-05-26T21:38:40.994Z,13.93
2019-05-26T21:41:11.560Z,10.30
2019-05-26T21:43:42.404Z,10.27
2019-05-26T21:46:14.261Z,8.13
2019-05-26T21:48:45.264Z,7.10
2019-05-26T21:51:16.145Z,6.97
2019-05-26T21:53:46.982Z,7.03
2019-05-26T21:56:17.823Z,7.67
2019-05-26T21:58:48.602Z,7.47
2019-05-26T22:01:19.712Z,7.30
2019-05-26T22:03:50.473Z,8.00
2019-05-26T22:06:21.139Z,7.67
2019-05-26T22:08:51.702Z,7.37
2019-05-26T22:11:23.840Z,7.43
2019-05-26T22:13:54.628Z,7.40
2019-05-26T22:16:25.248Z,7.63
2019-05-26T22:18:56.065Z,7.63
2019-05-26T22:21:26.702Z,7.30
2019-05-26T22:23:57.388Z,8.13
2019-05-26T22:26:28.118Z,8.70
2019-05-26T22:28:58.654Z,8.77
2019-05-26T22:31:29.326Z,8.90
2019-05-26T22:34:00.274Z,7.87
2019-05-26T22:36:31.074Z,9.03
2019-05-26T22:39:01.946Z,8.80
2019-05-26T22:41:33.933Z,8.60
2019-05-26T22:44:04.555Z,10.63
2019-05-26T22:46:35.176Z,8.90
2019-05-26T22:49:06.075Z,8.60
2019-05-26T22:51:36.531Z,8.80
2019-05-26T22:54:07.409Z,10.03
2019-05-26T22:56:38.123Z,10.03
2019-05-26T22:59:08.807Z,9.07
2019-05-26T23:01:39.476Z,9.60
2019-05-26T23:04:10.188Z,9.37
2019-05-26T23:06:41.018Z,10.10
2019-05-26T23:09:11.811Z,10.30
2019-05-26T23:11:42.216Z,10.13
2019-05-26T23:14:13.849Z,9.63
2019-05-26T23:16:44.366Z,9.80
2019-05-26T23:19:19.231Z,9.50
2019-05-26T23:21:47.402Z,10.50
2019-05-26T23:24:18.048Z,9.57
2019-05-26T23:26:48.823Z,8.63
2019-05-26T23:29:20.345Z,9.90
2019-05-26T23:31:51.043Z,10.73
2019-05-26T23:34:21.730Z,9.73
2019-05-26T23:36:52.469Z,10.33
2019-05-26T23:39:23.635Z,10.43
2019-05-26T23:41:54.463Z,10.17
2019-05-26T23:44:25.458Z,9.67
2019-05-26T23:46:56.175Z,9.23
2019-05-26T23:49:27.107Z,9.60
2019-05-26T23:51:58.388Z,10.63
2019-05-26T23:54:29.416Z,10.03
2019-05-26T23:57:00.156Z,10.57
2019-05-26T23:59:30.786Z,10.27
